Time;durP1;ratioP1;P1;durP2;ratioP2;P2;SDS_P1;SDS_P2;PMS_P1;PMS_P2;Temp;Humidity;BMP_temperature;BMP_pressure;BME280_temperature;BME280_humidity;BME280_pressure;Samples;Min_cycle;Max_cycle;Signal;HPM_P1;HPM_P2
2023/12/17 00:01:52;;;;;;;22.70;15.95;;;;;;;11.11;83.22;101771.75;4972683;28;20058;-80
2023/12/17 00:04:18;;;;;;;23.65;15.15;;;;;;;11.13;83.18;101774.31;4955472;28;20085;-80
2023/12/17 00:06:45;;;;;;;24.35;15.40;;;;;;;11.13;83.03;101767.28;4972611;28;20046;-80
2023/12/17 00:09:11;;;;;;;23.27;16.45;;;;;;;11.13;83.16;101784.84;4972341;28;20050;-80
2023/12/17 00:11:42;;;;;;;21.67;14.75;;;;;;;11.13;83.05;101785.72;4972090;28;20069;-80
2023/12/17 00:14:12;;;;;;;20.55;14.02;;;;;;;11.14;82.95;101792.72;4972519;28;20055;-80
2023/12/17 00:16:39;;;;;;;19.08;13.23;;;;;;;11.17;83.17;101794.41;4972359;28;20575;-81
2023/12/17 00:19:06;;;;;;;22.77;13.63;;;;;;;11.19;83.00;101805.78;4972492;28;20051;-80
2023/12/17 00:21:33;;;;;;;19.17;13.00;;;;;;;11.22;83.03;101824.19;4954749;28;20094;-80
2023/12/17 00:23:59;;;;;;;19.10;14.05;;;;;;;11.23;83.29;101811.84;4972651;28;20074;-81
2023/12/17 00:26:26;;;;;;;20.08;14.00;;;;;;;11.24;82.80;101830.25;4972040;28;20133;-80
2023/12/17 00:28:52;;;;;;;18.05;13.48;;;;;;;11.25;82.87;101810.88;4972415;28;20146;-80
2023/12/17 00:31:19;;;;;;;20.38;14.20;;;;;;;11.28;82.82;101829.28;4971867;28;20047;-79
2023/12/17 00:33:46;;;;;;;17.63;13.55;;;;;;;11.26;82.58;101820.56;4955227;28;20046;-81
2023/12/17 00:36:13;;;;;;;17.80;13.20;;;;;;;11.29;82.44;101831.00;4972098;28;20051;-81
2023/12/17 00:38:40;;;;;;;18.15;12.15;;;;;;;11.31;82.42;101823.94;4972242;28;20057;-80
2023/12/17 00:41:06;;;;;;;19.27;12.35;;;;;;;11.30;82.43;101814.28;4954656;28;20054;-80
2023/12/17 00:43:35;;;;;;;17.05;12.77;;;;;;;11.33;82.61;101816.81;4972497;28;20142;-80
2023/12/17 00:46:01;;;;;;;16.95;12.60;;;;;;;11.34;82.41;101813.28;4972026;28;20066;-80
2023/12/17 00:48:28;;;;;;;17.20;12.38;;;;;;;11.34;82.40;101815.91;4972066;28;20067;-80
2023/12/17 00:50:55;;;;;;;17.30;13.15;;;;;;;11.35;82.31;101816.78;4954681;28;20050;-80
2023/12/17 00:53:22;;;;;;;19.98;13.65;;;;;;;11.34;82.31;101815.91;4971887;28;20059;-81
2023/12/17 00:55:48;;;;;;;19.08;13.45;;;;;;;11.36;82.26;101817.66;4975108;28;20133;-80
2023/12/17 00:58:15;;;;;;;18.08;13.32;;;;;;;11.37;82.25;101814.13;4958594;28;20046;-80
2023/12/17 01:00:41;;;;;;;17.65;13.05;;;;;;;11.37;82.12;101822.03;4975793;28;20097;-81
2023/12/17 01:03:20;;;;;;;20.52;13.98;;;;;;;11.37;82.20;101799.16;4960257;28;20051;-80
2023/12/17 01:05:47;;;;;;;20.05;14.30;;;;;;;11.37;81.73;101807.09;4958566;28;20051;-81
2023/12/17 01:08:13;;;;;;;19.05;13.95;;;;;;;11.37;82.13;101801.81;4976105;28;20078;-80
2023/12/17 01:10:40;;;;;;;17.27;13.45;;;;;;;11.39;82.14;101801.75;4958469;28;20138;-80
2023/12/17 01:13:07;;;;;;;18.60;13.93;;;;;;;11.39;81.95;101810.53;4975330;28;20110;-81
2023/12/17 01:15:33;;;;;;;18.30;13.77;;;;;;;11.37;81.88;101793.91;4958296;28;20499;-80
2023/12/17 01:18:00;;;;;;;21.10;14.65;;;;;;;11.39;81.61;101788.56;4958465;28;20051;-80
2023/12/17 01:20:27;;;;;;;22.15;14.00;;;;;;;11.39;81.75;101794.72;4975448;28;20506;-80
2023/12/17 01:22:53;;;;;;;18.88;13.60;;;;;;;11.41;81.87;101799.94;4975186;28;20130;-80
2023/12/17 01:25:20;;;;;;;18.73;13.25;;;;;;;11.41;81.78;101795.53;4975264;28;20051;-80
2023/12/17 01:27:46;;;;;;;15.73;12.70;;;;;;;11.41;81.70;101798.19;4975375;28;20042;-80
2023/12/17 01:30:13;;;;;;;17.42;12.52;;;;;;;11.43;81.56;101792.84;4975503;28;20113;-81
2023/12/17 01:32:39;;;;;;;17.35;12.73;;;;;;;11.43;81.67;101791.06;4975338;28;20109;-80
2023/12/17 01:35:08;;;;;;;17.88;12.18;;;;;;;11.43;81.41;101793.72;4975209;28;20047;-82
2023/12/17 01:37:34;;;;;;;17.30;12.57;;;;;;;11.43;81.18;101784.94;4974698;28;20538;-80
2023/12/17 01:40:01;;;;;;;16.88;12.27;;;;;;;11.42;81.10;101794.63;4975230;28;20090;-80
2023/12/17 01:42:28;;;;;;;17.17;12.15;;;;;;;11.42;81.02;101789.34;4975432;28;20055;-80
2023/12/17 01:44:55;;;;;;;17.27;13.18;;;;;;;11.40;80.84;101777.97;4975170;28;20066;-80
2023/12/17 01:47:22;;;;;;;18.20;12.10;;;;;;;11.41;80.97;101794.66;4974658;28;20058;-80
2023/12/17 01:49:48;;;;;;;17.08;13.07;;;;;;;11.41;81.03;101802.56;4975048;28;20051;-80
2023/12/17 01:52:16;;;;;;;16.13;12.27;;;;;;;11.41;80.99;101799.94;4975204;28;20054;-81
2023/12/17 01:54:42;;;;;;;13.27;11.48;;;;;;;11.43;80.89;101782.28;4975355;28;20058;-80
2023/12/17 01:57:09;;;;;;;14.50;12.10;;;;;;;11.43;80.71;101800.75;4974457;28;20432;-80
2023/12/17 01:59:36;;;;;;;17.63;12.10;;;;;;;11.44;80.76;101794.59;4974615;28;20047;-80
2023/12/17 02:02:03;;;;;;;16.92;12.50;;;;;;;11.45;80.69;101799.78;4957754;28;20101;-80
2023/12/17 02:04:30;;;;;;;15.63;12.25;;;;;;;11.46;80.70;101795.41;4974722;28;20052;-80
2023/12/17 02:06:56;;;;;;;18.00;12.73;;;;;;;11.46;80.27;101803.31;4973001;28;20496;-80
2023/12/17 02:09:23;;;;;;;16.45;13.38;;;;;;;11.47;80.65;101791.84;4974704;28;20459;-79
2023/12/17 02:11:50;;;;;;;15.90;12.85;;;;;;;11.47;80.50;101797.13;4974442;28;20500;-80
2023/12/17 02:14:17;;;;;;;18.45;13.93;;;;;;;11.49;80.43;101791.81;4974611;28;20170;-80
2023/12/17 02:16:43;;;;;;;16.98;12.82;;;;;;;11.49;80.38;101797.97;4957094;28;20086;-80
2023/12/17 02:19:10;;;;;;;17.75;12.52;;;;;;;11.51;80.46;101795.28;4974238;28;20097;-79
2023/12/17 02:21:36;;;;;;;17.52;12.43;;;;;;;11.52;80.20;101783.81;4957377;28;20051;-80
2023/12/17 02:24:03;;;;;;;19.30;12.65;;;;;;;11.52;80.28;101792.59;4957357;28;20066;-79
2023/12/17 02:26:34;;;;;;;18.17;12.38;;;;;;;11.55;80.29;101791.66;4957616;28;20051;-80
2023/12/17 02:29:00;;;;;;;15.68;12.48;;;;;;;11.53;79.60;101801.38;4956706;28;20134;-80
2023/12/17 02:31:27;;;;;;;17.05;12.75;;;;;;;11.53;80.02;101796.09;4974104;28;20066;-79
2023/12/17 02:33:53;;;;;;;18.15;12.65;;;;;;;11.52;79.85;101789.97;4957403;28;20062;-79
2023/12/17 02:36:20;;;;;;;17.00;12.18;;;;;;;11.52;79.88;101787.34;4956982;28;20794;-79
2023/12/17 02:38:46;;;;;;;16.70;12.80;;;;;;;11.51;79.96;101788.22;4973945;28;20105;-81
2023/12/17 02:41:13;;;;;;;15.40;11.57;;;;;;;11.51;79.71;101782.94;4974050;28;20090;-79
2023/12/17 02:43:40;;;;;;;15.75;11.98;;;;;;;11.51;79.67;101796.13;4956170;28;20089;-80
2023/12/17 02:46:06;;;;;;;17.15;12.82;;;;;;;11.50;79.72;101794.41;4973259;28;20059;-78
2023/12/17 02:48:33;;;;;;;16.42;11.85;;;;;;;11.53;79.92;101793.44;4956374;28;20086;-80
2023/12/17 02:51:00;;;;;;;15.05;11.68;;;;;;;11.53;79.60;101802.25;4973799;28;20101;-80
2023/12/17 02:53:26;;;;;;;15.07;12.63;;;;;;;11.52;79.46;101792.59;4973794;28;20047;-80
2023/12/17 02:55:53;;;;;;;15.82;11.77;;;;;;;11.53;79.73;101796.09;4956827;28;20142;-80
2023/12/17 02:58:19;;;;;;;14.88;11.88;;;;;;;11.54;79.55;101790.78;4973164;28;20043;-80
2023/12/17 03:00:46;;;;;;;15.43;12.05;;;;;;;11.53;79.75;101791.69;4973784;28;20051;-80
2023/12/17 03:03:12;;;;;;;16.75;11.93;;;;;;;11.55;79.72;101786.38;4956378;28;20543;-80
2023/12/17 03:05:39;;;;;;;16.58;12.70;;;;;;;11.55;79.51;101776.66;4973840;28;20057;-80
2023/12/17 03:08:05;;;;;;;14.13;11.40;;;;;;;11.55;79.45;101775.81;4973069;28;20131;-80
2023/12/17 03:10:32;;;;;;;14.60;11.25;;;;;;;11.55;79.41;101766.13;4956423;28;20144;-79
2023/12/17 03:12:58;;;;;;;15.82;11.88;;;;;;;11.55;79.26;101779.31;4973545;28;20063;-80
2023/12/17 03:15:25;;;;;;;15.88;11.90;;;;;;;11.55;79.25;101767.91;4973641;28;20109;-81
2023/12/17 03:17:52;;;;;;;15.70;11.90;;;;;;;11.53;79.09;101762.69;4972766;28;20065;-80
2023/12/17 03:20:18;;;;;;;14.48;11.32;;;;;;;11.54;79.12;101760.88;4973235;28;20047;-79
2023/12/17 03:22:45;;;;;;;14.07;10.77;;;;;;;11.55;79.03;101752.94;4956242;28;20043;-81
2023/12/17 03:25:11;;;;;;;15.35;11.45;;;;;;;11.53;78.97;101748.63;4973405;28;20101;-80
2023/12/17 03:27:38;;;;;;;16.30;12.27;;;;;;;11.54;79.05;101755.63;4972994;28;20053;-80
2023/12/17 03:30:06;;;;;;;15.95;11.73;;;;;;;11.52;78.89;101750.41;4956040;28;20047;-81
2023/12/17 03:32:33;;;;;;;13.93;11.35;;;;;;;11.51;79.00;101746.00;4973182;28;20051;-80
2023/12/17 03:35:00;;;;;;;13.50;11.50;;;;;;;11.50;78.81;101754.84;4973486;28;20050;-80
2023/12/17 03:37:26;;;;;;;14.20;10.65;;;;;;;11.50;78.96;101752.22;4973050;28;20051;-80
2023/12/17 03:39:53;;;;;;;16.77;11.77;;;;;;;11.49;78.99;101752.25;4972593;28;20055;-80
2023/12/17 03:42:19;;;;;;;14.07;11.63;;;;;;;11.47;79.01;101739.97;4972991;28;20133;-78
2023/12/17 03:44:46;;;;;;;14.60;11.68;;;;;;;11.46;78.71;101748.81;4973220;28;20046;-81
2023/12/17 03:47:13;;;;;;;15.75;12.13;;;;;;;11.46;78.88;101732.09;4972777;28;20050;-81
2023/12/17 03:49:39;;;;;;;15.75;11.80;;;;;;;11.45;78.91;101725.97;4972581;28;20042;-81
2023/12/17 03:52:06;;;;;;;14.75;11.15;;;;;;;11.44;78.73;101729.50;4972618;28;20050;-80
2023/12/17 03:54:33;;;;;;;16.98;11.15;;;;;;;11.44;78.74;101726.88;4955571;28;20047;-80
2023/12/17 03:56:59;;;;;;;17.40;11.77;;;;;;;11.43;78.50;101730.44;4972482;28;20050;-80
2023/12/17 03:59:26;;;;;;;15.02;10.90;;;;;;;11.43;78.55;101719.00;4972481;28;20110;-80
2023/12/17 04:01:52;;;;;;;15.05;11.25;;;;;;;11.41;78.40;101731.38;4955628;28;20097;-80
2023/12/17 04:04:19;;;;;;;13.93;11.35;;;;;;;11.39;78.36;101723.50;4955919;28;20086;-79
2023/12/17 04:06:46;;;;;;;13.23;10.25;;;;;;;11.40;78.63;101732.28;4972573;28;20142;-80
2023/12/17 04:09:12;;;;;;;15.25;10.27;;;;;;;11.39;78.08;101725.28;4972225;28;20054;-82
2023/12/17 04:11:39;;;;;;;14.38;10.38;;;;;;;11.39;78.61;101720.00;4972400;28;20476;-81
2023/12/17 04:14:05;;;;;;;12.65;10.07;;;;;;;11.37;78.36;101720.06;4955304;28;20051;-80
2023/12/17 04:16:33;;;;;;;15.30;10.63;;;;;;;11.35;78.32;101721.88;4972442;28;20059;-81
2023/12/17 04:18:59;;;;;;;11.57;9.43;;;;;;;11.36;78.35;101714.84;4972485;28;20059;-80
2023/12/17 04:21:26;;;;;;;11.27;9.55;;;;;;;11.36;78.22;101709.56;4954951;28;20051;-80
2023/12/17 04:23:53;;;;;;;14.60;10.52;;;;;;;11.34;77.98;101707.81;4972358;28;20078;-80
2023/12/17 04:26:21;;;;;;;12.43;9.55;;;;;;;11.34;78.07;101697.25;4972679;28;20053;-80
2023/12/17 04:28:47;;;;;;;16.85;10.48;;;;;;;11.33;78.01;101692.06;4971852;28;20566;-80
2023/12/17 04:31:14;;;;;;;12.68;9.85;;;;;;;11.33;78.12;101686.78;4971929;28;20047;-82
2023/12/17 04:33:41;;;;;;;11.98;9.38;;;;;;;11.32;78.00;101699.09;4972253;28;20050;-81
2023/12/17 04:36:08;;;;;;;12.43;9.57;;;;;;;11.33;78.35;101689.41;4972042;28;20082;-81
2023/12/17 04:38:34;;;;;;;12.75;10.10;;;;;;;11.31;77.95;101684.19;4955097;28;20062;-80
2023/12/17 04:41:01;;;;;;;10.85;8.88;;;;;;;11.31;77.87;101686.81;4971884;28;20057;-79
2023/12/17 04:43:28;;;;;;;12.85;9.55;;;;;;;11.32;77.72;101690.31;4972317;28;20113;-80
2023/12/17 04:45:55;;;;;;;12.43;9.20;;;;;;;11.31;78.14;101686.81;4972036;28;20766;-81
2023/12/17 04:48:22;;;;;;;11.95;9.13;;;;;;;11.28;77.61;101680.75;4954794;28;20051;-79
2023/12/17 04:50:49;;;;;;;12.88;8.05;;;;;;;11.29;77.89;101679.88;4971618;28;20047;-82
2023/12/17 04:53:16;;;;;;;8.95;7.75;;;;;;;11.28;77.85;101680.75;4955017;28;20057;-80
2023/12/17 04:55:43;;;;;;;10.18;7.47;;;;;;;11.28;77.98;101692.19;4954928;28;20070;-80
2023/12/17 04:58:09;;;;;;;11.10;8.15;;;;;;;11.27;77.86;101693.09;4971883;28;20129;-81
2023/12/17 05:00:36;;;;;;;15.23;8.05;;;;;;;11.26;77.56;101687.88;4971567;28;20054;-80
2023/12/17 05:03:05;;;;;;;15.73;8.50;;;;;;;11.27;77.58;101689.59;4971975;28;20443;-81
2023/12/17 05:05:35;;;;;;;10.30;7.88;;;;;;;11.29;78.05;101700.97;4971923;28;20047;-82
2023/12/17 05:08:02;;;;;;;11.75;8.63;;;;;;;11.27;77.86;101693.09;4954755;28;20707;-80
2023/12/17 05:10:28;;;;;;;11.07;9.05;;;;;;;11.28;77.96;101689.53;4971771;28;20057;-80
2023/12/17 05:12:55;;;;;;;11.02;8.45;;;;;;;11.28;78.08;101681.63;4971947;28;20164;-79
2023/12/17 05:15:22;;;;;;;13.00;9.55;;;;;;;11.30;78.19;101694.78;4971746;28;20419;-80
2023/12/17 05:17:49;;;;;;;12.43;9.48;;;;;;;11.30;78.25;101695.66;4971801;28;20086;-80
2023/12/17 05:20:15;;;;;;;16.65;10.13;;;;;;;11.31;78.39;101702.66;4954134;28;20053;-80
2023/12/17 05:22:42;;;;;;;16.98;10.85;;;;;;;11.31;77.85;101701.78;4954604;28;20059;-80
2023/12/17 05:25:09;;;;;;;14.07;10.77;;;;;;;11.31;78.04;101702.66;4971890;28;20133;-80
2023/12/17 05:27:39;;;;;;;18.50;11.68;;;;;;;11.32;78.26;101706.13;4971705;28;20113;-80
2023/12/17 05:30:07;;;;;;;18.60;11.63;;;;;;;11.30;78.02;101700.94;4954669;28;20098;-80
2023/12/17 05:32:34;;;;;;;17.98;12.10;;;;;;;11.29;78.16;101701.81;4971135;28;20055;-80
2023/12/17 05:35:01;;;;;;;15.13;11.57;;;;;;;11.30;78.26;101700.06;4971713;28;20476;-81
2023/12/17 05:37:27;;;;;;;17.13;13.05;;;;;;;11.30;78.35;101694.78;4954376;28;20062;-81
2023/12/17 05:39:54;;;;;;;17.80;12.70;;;;;;;11.29;78.25;101695.69;4971483;28;20046;-81
2023/12/17 05:42:20;;;;;;;16.35;13.10;;;;;;;11.27;78.06;101701.00;4974931;28;20089;-80
2023/12/17 05:44:47;;;;;;;14.55;11.85;;;;;;;11.25;78.03;101697.53;4975207;28;20047;-81
2023/12/17 05:47:14;;;;;;;17.48;11.82;;;;;;;11.23;78.10;101694.09;4974802;28;20050;-80
2023/12/17 05:49:40;;;;;;;17.13;11.48;;;;;;;11.25;78.38;101694.06;4975142;28;20078;-81
2023/12/17 05:52:08;;;;;;;18.52;11.38;;;;;;;11.23;78.21;101694.09;4974725;28;20097;-80
2023/12/17 05:54:35;;;;;;;15.82;11.20;;;;;;;11.23;78.39;101696.72;4975247;28;20100;-80
2023/12/17 05:57:02;;;;;;;15.65;10.07;;;;;;;11.22;78.13;101697.66;4957674;28;20043;-80
2023/12/17 05:59:28;;;;;;;17.02;11.60;;;;;;;11.23;78.22;101704.63;4974916;28;20055;-81
2023/12/17 06:01:55;;;;;;;17.10;11.55;;;;;;;11.22;78.37;101702.91;4957079;28;20097;-84
2023/12/17 06:04:21;;;;;;;14.75;11.15;;;;;;;11.21;78.37;101693.25;4974979;28;20057;-81
2023/12/17 06:06:48;;;;;;;17.17;12.02;;;;;;;11.21;78.45;101698.53;4974464;28;20476;-80
2023/12/17 06:09:15;;;;;;;15.38;11.05;;;;;;;11.23;78.64;101703.75;4974789;28;20046;-82
2023/12/17 06:11:42;;;;;;;17.17;11.38;;;;;;;11.23;78.65;101707.28;4974401;28;20461;-82
2023/12/17 06:14:10;;;;;;;16.92;11.57;;;;;;;11.24;78.44;101710.75;4974461;28;20061;-81
2023/12/17 06:16:43;;;;;;;19.85;12.55;;;;;;;11.24;77.98;101713.38;4974485;28;20137;-82
2023/12/17 06:19:10;;;;;;;;;;;;;;;11.24;76.50;101722.16;4974940;28;20051;-85
2023/12/17 06:21:37;;;;;;;18.98;13.05;;;;;;;11.27;78.26;101716.81;4957298;28;19984;-82
2023/12/17 06:24:05;;;;;;;17.90;12.45;;;;;;;11.26;78.77;101720.38;4957209;28;20098;-81
2023/12/17 06:26:33;;;;;;;19.85;13.77;;;;;;;11.25;78.44;101725.69;4974599;28;20476;-82
2023/12/17 06:28:59;;;;;;;20.27;13.77;;;;;;;11.23;78.73;101724.84;4974388;28;20078;-82
2023/12/17 06:31:26;;;;;;;18.60;13.27;;;;;;;11.22;78.72;101718.72;4956649;28;20108;-85
2023/12/17 06:33:56;;;;;;;18.95;14.10;;;;;;;11.20;78.70;101726.69;4973680;28;20054;-82
2023/12/17 06:36:23;;;;;;;18.58;13.50;;;;;;;11.21;78.76;101736.31;4956790;28;20115;-83
2023/12/17 06:38:50;;;;;;;16.85;13.85;;;;;;;11.19;78.72;101727.59;4970892;28;20129;-84
2023/12/17 06:41:16;;;;;;;17.00;12.52;;;;;;;11.19;78.85;101734.63;4972793;28;20047;-84
2023/12/17 06:43:43;;;;;;;16.95;12.45;;;;;;;11.19;78.83;101729.34;4956631;28;20050;-86
2023/12/17 06:46:15;;;;;;;18.80;13.27;;;;;;;11.15;78.24;101727.72;4956491;28;20047;-83
2023/12/17 06:48:42;;;;;;;19.85;13.02;;;;;;;11.17;78.52;101725.88;4974016;28;20058;-81
2023/12/17 06:51:12;;;;;;;19.15;13.13;;;;;;;11.16;78.93;101726.78;4956784;28;20055;-84
2023/12/17 06:53:38;;;;;;;21.90;13.80;;;;;;;11.16;79.12;101725.03;4972715;28;20051;-82
2023/12/17 06:56:06;;;;;;;16.95;12.50;;;;;;;11.16;79.04;101722.41;4973736;28;20051;-82
2023/12/17 06:58:33;;;;;;;16.92;12.68;;;;;;;11.17;79.03;101721.47;4974077;28;20053;-85
2023/12/17 07:01:00;;;;;;;18.27;12.93;;;;;;;11.18;79.18;101722.34;4973942;28;20050;-82
2023/12/17 07:03:27;;;;;;;17.52;12.80;;;;;;;11.18;79.14;101706.53;4973661;28;20066;-82
2023/12/17 07:05:54;;;;;;;21.48;13.55;;;;;;;11.17;79.04;101703.03;4956320;28;20054;-84
2023/12/17 07:08:20;;;;;;;16.58;12.38;;;;;;;11.17;79.08;101710.94;4973613;28;20448;-86
2023/12/17 07:10:47;;;;;;;18.30;13.63;;;;;;;11.16;78.99;101717.13;4973719;28;20134;-83
2023/12/17 07:13:13;;;;;;;20.58;13.73;;;;;;;11.16;79.14;101725.03;4973647;28;20066;-83
2023/12/17 07:15:40;;;;;;;18.17;12.88;;;;;;;11.16;78.88;101718.88;4973643;28;20392;-83
2023/12/17 07:18:06;;;;;;;17.92;12.73;;;;;;;11.16;79.26;101710.97;4973332;28;20109;-83
2023/12/17 07:20:34;;;;;;;21.83;13.55;;;;;;;11.17;79.15;101716.22;4973534;28;20059;-83
2023/12/17 07:23:00;;;;;;;20.60;14.15;;;;;;;11.16;78.95;101706.59;4973221;28;20453;-81
2023/12/17 07:25:27;;;;;;;17.60;13.10;;;;;;;11.16;79.04;101716.25;4972887;28;20075;-82
2023/12/17 07:27:54;;;;;;;20.08;13.63;;;;;;;11.15;79.13;101712.78;4972343;28;20057;-82
2023/12/17 07:30:21;;;;;;;18.40;12.48;;;;;;;11.15;79.02;101711.88;4972877;28;20050;-83
2023/12/17 07:32:48;;;;;;;20.58;14.23;;;;;;;11.14;79.05;101724.19;4972658;28;20054;-83
2023/12/17 07:35:15;;;;;;;19.90;14.30;;;;;;;11.14;79.17;101732.09;4972737;28;20051;-82
2023/12/17 07:37:42;;;;;;;20.55;13.68;;;;;;;11.14;79.04;101729.47;4971890;28;20063;-83
2023/12/17 07:40:09;;;;;;;21.88;14.25;;;;;;;11.16;79.16;101745.25;4972939;28;20050;-83
2023/12/17 07:42:36;;;;;;;17.98;12.85;;;;;;;11.16;79.33;101740.84;4973080;28;20443;-82
2023/12/17 07:45:04;;;;;;;19.60;14.25;;;;;;;11.16;79.26;101745.25;4973000;28;20054;-84
2023/12/17 07:47:32;;;;;;;19.63;14.13;;;;;;;11.16;79.42;101738.22;4972439;28;20054;-81
2023/12/17 07:49:58;;;;;;;20.98;14.90;;;;;;;11.16;79.13;101730.31;4972737;28;20046;-83
2023/12/17 07:52:25;;;;;;;22.02;14.68;;;;;;;11.17;79.13;101725.88;4972419;28;20138;-82
2023/12/17 07:54:55;;;;;;;21.90;14.85;;;;;;;11.17;79.11;101725.88;4972686;28;20050;-83
2023/12/17 07:57:22;;;;;;;22.52;15.73;;;;;;;11.15;79.17;101712.78;4972943;28;20047;-83
2023/12/17 07:59:48;;;;;;;24.80;16.02;;;;;;;11.17;79.19;101721.47;4973168;28;20134;-82
2023/12/17 08:02:15;;;;;;;25.92;16.65;;;;;;;11.16;79.07;101718.88;4972059;28;20706;-82
2023/12/17 08:04:43;;;;;;;25.27;17.30;;;;;;;11.14;78.95;101724.19;4971201;28;20053;-84
2023/12/17 08:07:10;;;;;;;23.08;16.55;;;;;;;11.15;78.86;101709.25;4953798;28;20054;-84
2023/12/17 08:09:37;;;;;;;23.13;16.30;;;;;;;11.14;79.08;101718.06;4971327;28;20046;-85
2023/12/17 08:12:05;;;;;;;21.88;15.35;;;;;;;11.13;79.16;101716.31;4953058;28;20463;-84
2023/12/17 08:14:32;;;;;;;25.40;17.40;;;;;;;11.12;78.98;101723.38;4951552;29;20047;-82
2023/12/17 08:16:58;;;;;;;26.52;17.48;;;;;;;11.11;78.74;101731.31;4951175;29;20426;-86
2023/12/17 08:19:25;;;;;;;23.33;16.27;;;;;;;11.10;78.74;101724.34;4952748;28;20055;-85
2023/12/17 08:21:52;;;;;;;23.63;16.60;;;;;;;11.05;78.68;101717.41;4956700;28;20061;-85
2023/12/17 08:24:18;;;;;;;22.80;15.73;;;;;;;11.06;79.08;101720.91;4972331;28;20050;-84
2023/12/17 08:26:45;;;;;;;21.45;16.15;;;;;;;11.05;78.90;101720.06;4972235;28;20468;-82
2023/12/17 08:29:11;;;;;;;22.23;16.38;;;;;;;11.03;78.86;101710.47;4972252;28;20694;-82
2023/12/17 08:31:44;;;;;;;22.10;15.68;;;;;;;11.01;78.48;101710.50;4972197;28;20046;-78
2023/12/17 08:34:11;;;;;;;22.00;15.25;;;;;;;11.02;79.07;101706.97;4971863;28;20047;-82
2023/12/17 08:36:41;;;;;;;23.95;16.60;;;;;;;11.01;78.79;101715.78;4972110;28;20089;-82
2023/12/17 08:39:08;;;;;;;23.77;16.77;;;;;;;11.01;78.96;101709.63;4972262;28;20613;-81
2023/12/17 08:41:34;;;;;;;22.73;15.57;;;;;;;11.00;78.75;101714.06;4954980;28;20823;-85
2023/12/17 08:44:01;;;;;;;21.80;15.82;;;;;;;10.98;78.67;101715.84;4971823;28;20579;-83
2023/12/17 08:46:27;;;;;;;19.55;14.93;;;;;;;10.98;78.88;101705.31;4971894;28;20058;-83
2023/12/17 08:48:54;;;;;;;24.73;17.23;;;;;;;10.95;78.70;101700.13;4972228;28;20491;-84
2023/12/17 08:51:21;;;;;;;21.40;15.20;;;;;;;10.94;78.63;101701.91;4972146;28;20070;-83
2023/12/17 08:53:48;;;;;;;20.15;14.93;;;;;;;10.93;78.95;101709.84;4971894;28;20455;-81
2023/12/17 08:56:15;;;;;;;20.13;15.52;;;;;;;10.91;78.57;101707.25;4971823;28;20129;-85
2023/12/17 08:58:41;;;;;;;23.30;16.35;;;;;;;10.90;78.59;101704.66;4972090;28;20093;-84
2023/12/17 09:01:08;;;;;;;21.35;15.73;;;;;;;10.88;78.40;101698.56;4971880;28;20773;-83
2023/12/17 09:03:34;;;;;;;19.75;14.45;;;;;;;10.87;78.74;101702.13;4971919;28;20090;-83
2023/12/17 09:06:02;;;;;;;20.10;14.68;;;;;;;10.89;78.72;101702.94;4971545;28;20042;-83
2023/12/17 09:08:29;;;;;;;20.38;14.60;;;;;;;10.88;78.97;101702.06;4972106;28;20101;-82
2023/12/17 09:10:55;;;;;;;21.10;14.88;;;;;;;10.88;78.79;101712.59;4972076;28;20054;-85
2023/12/17 09:13:23;;;;;;;21.35;15.07;;;;;;;10.89;78.96;101716.09;4971734;28;20051;-83
2023/12/17 09:15:50;;;;;;;20.63;15.55;;;;;;;10.90;78.93;101709.91;4973227;28;20137;-83
2023/12/17 09:18:16;;;;;;;21.55;14.95;;;;;;;10.88;78.67;101714.38;4975667;28;20134;-81
2023/12/17 09:20:46;;;;;;;22.73;15.88;;;;;;;10.88;78.72;101712.59;4975634;28;20488;-81
2023/12/17 09:23:13;;;;;;;23.80;16.45;;;;;;;10.90;78.75;101704.66;4975755;28;20055;-82
2023/12/17 09:25:40;;;;;;;22.48;15.88;;;;;;;10.90;78.92;101712.56;4975457;28;20177;-81
2023/12/17 09:28:06;;;;;;;20.10;14.43;;;;;;;10.89;78.72;101706.44;4975406;28;20493;-81
2023/12/17 09:30:33;;;;;;;18.73;14.18;;;;;;;10.89;78.73;101703.81;4975715;28;20082;-82
2023/12/17 09:33:00;;;;;;;20.83;14.85;;;;;;;10.89;78.81;101706.44;4975763;28;20055;-81
2023/12/17 09:35:27;;;;;;;20.17;14.07;;;;;;;10.89;78.79;101702.94;4975647;28;20051;-82
2023/12/17 09:37:53;;;;;;;19.70;14.20;;;;;;;10.88;78.85;101704.69;4975113;28;20058;-81
2023/12/17 09:40:20;;;;;;;19.50;13.93;;;;;;;10.87;78.51;101702.97;4975325;28;20047;-81
2023/12/17 09:42:52;;;;;;;19.55;14.07;;;;;;;10.86;78.39;101701.25;4975451;28;20137;-81
2023/12/17 09:45:19;;;;;;;25.10;15.95;;;;;;;10.87;78.55;101708.22;4975658;28;20086;-82
2023/12/17 09:47:46;;;;;;;20.90;14.02;;;;;;;10.88;78.67;101695.94;4957624;28;20109;-80
2023/12/17 09:50:13;;;;;;;22.27;15.10;;;;;;;10.86;78.52;101700.38;4974292;28;20054;-81
2023/12/17 09:52:41;;;;;;;21.17;14.60;;;;;;;10.84;78.60;101696.94;4974789;28;20051;-82
2023/12/17 09:55:10;;;;;;;17.77;13.38;;;;;;;10.84;78.31;101689.88;4958001;28;20559;-80
2023/12/17 09:57:37;;;;;;;19.98;13.57;;;;;;;10.85;78.43;101710.06;4974363;28;20464;-81
2023/12/17 10:00:09;;;;;;;21.23;14.45;;;;;;;10.82;77.92;101694.31;4957427;28;20050;-82
2023/12/17 10:02:37;;;;;;;19.23;13.38;;;;;;;10.82;78.41;101695.19;4957741;28;20054;-80
2023/12/17 10:05:06;;;;;;;16.63;13.25;;;;;;;10.80;78.06;101691.72;4974912;28;20050;-81
2023/12/17 10:07:36;;;;;;;21.50;13.20;;;;;;;10.79;78.24;101682.09;4957212;28;20426;-82
2023/12/17 10:10:04;;;;;;;19.35;13.63;;;;;;;10.77;78.20;101676.00;4975044;28;20064;-79
2023/12/17 10:12:30;;;;;;;18.42;13.50;;;;;;;10.77;78.23;101677.78;4974765;28;20101;-81
2023/12/17 10:14:57;;;;;;;17.67;12.30;;;;;;;10.74;78.00;101669.94;4957388;28;20069;-81
2023/12/17 10:17:24;;;;;;;18.95;13.15;;;;;;;10.72;78.13;101669.16;4974312;28;20086;-81
2023/12/17 10:19:52;;;;;;;17.02;12.75;;;;;;;10.69;78.06;101672.69;4974655;28;20480;-82
2023/12/17 10:22:20;;;;;;;18.50;12.50;;;;;;;10.67;78.03;101671.88;4974570;28;20047;-80
2023/12/17 10:24:47;;;;;;;16.80;12.05;;;;;;;10.65;77.99;101666.66;4974509;28;20145;-82
2023/12/17 10:27:21;;;;;;;15.80;11.93;;;;;;;10.60;77.02;101652.75;4973022;28;20086;-81
2023/12/17 10:29:50;;;;;;;15.93;11.45;;;;;;;10.61;77.83;101653.63;4974754;28;20432;-82
2023/12/17 10:32:24;;;;;;;15.55;11.98;;;;;;;10.57;77.05;101651.97;4974402;28;20403;-81
2023/12/17 10:34:52;;;;;;;14.65;10.90;;;;;;;10.58;78.06;101651.91;4974245;28;20051;-81
2023/12/17 10:37:21;;;;;;;15.73;11.13;;;;;;;10.57;77.54;101646.72;4973978;28;20093;-80
2023/12/17 10:39:50;;;;;;;16.55;11.00;;;;;;;10.57;78.03;101657.25;4974379;28;20440;-81
2023/12/17 10:42:18;;;;;;;13.00;10.55;;;;;;;10.55;78.12;101649.38;4974220;28;20054;-81
2023/12/17 10:44:49;;;;;;;16.67;10.60;;;;;;;10.54;77.76;101659.03;4974320;28;20062;-81
2023/12/17 10:47:22;;;;;;;14.45;10.70;;;;;;;10.51;77.56;101659.13;4973581;28;20042;-82
2023/12/17 10:49:49;;;;;;;15.35;11.43;;;;;;;10.49;77.75;101660.94;4957330;28;20051;-82
2023/12/17 10:52:16;;;;;;;14.30;10.57;;;;;;;10.50;78.01;101653.91;4974067;28;20058;-81
2023/12/17 10:54:43;;;;;;;14.57;10.32;;;;;;;10.49;77.99;101649.53;4974338;28;20050;-81
2023/12/17 10:57:17;;;;;;;14.35;10.75;;;;;;;10.46;77.06;101653.09;4973892;28;20114;-82
2023/12/17 10:59:46;;;;;;;14.68;10.00;;;;;;;10.47;77.92;101641.66;4956787;28;20054;-81
2023/12/17 11:02:15;;;;;;;15.15;10.52;;;;;;;10.45;77.27;101658.41;4973977;28;20086;-82
2023/12/17 11:04:45;;;;;;;12.68;9.73;;;;;;;10.43;77.65;101634.72;4956234;28;20125;-83
2023/12/17 11:07:19;;;;;;;12.30;9.13;;;;;;;10.40;77.00;101645.34;4973876;28;20051;-80
2023/12/17 11:10:01;;;;;;;12.18;9.25;;;;;;;10.40;77.67;101635.66;4973847;28;20047;-81